YTQY weather

Torquay Airport
Torquay, Victoria, Australia

Public forecast

Using degrees Celsius for public forecast. Weather courtesy of forecast.io.

METAR (pilot weather report)

Closest report is Avalon Airport, 16.4 nm (30.4 km) NNE. Retrieved 2019/02/18 08:03 UTC (12 minutes ago):

YMAV 180803Z AUTO 24015G25KT 9999 // NCD 22/09 Q1007

TAF (pilot weather forecast)

Closest forecast is Avalon Airport, 16.4 nm (30.4 km) NNE. Retrieved 2019/02/18 06:00 UTC (2 hours ago):

TAF YMAV 180511Z 1806/1906 19015G25KT 9999 FEW025 SCT040 BECMG 1809/1811 26012KT 9999 SCT040 FM190200 20013KT 9999 SCT040